JST676 YMML-YSCB

Flight info

Callsign JST676
Flight time N/A
Altitude 31000
Route DOSEL Y59 ARRAN
Aircraft A321/M-SDE3FGHIRWY/LB1

Departure

Time 2026-04-30 10:04
Airport Melbourne Airport (YMML)

Arrival

Time N/A
Airport Canberra Airport (YSCB)
Time Latitude Longitude Altitude Speed Heading
2026-04-30 09:36 -37.67657 144.84711 375 ft 0 kts 351°
2026-04-30 09:54 -37.67669 144.84713 374 ft 4 kts 351°
2026-04-30 09:54 -37.67695 144.84718 373 ft 4 kts 346°
2026-04-30 09:55 -37.67720 144.84729 372 ft 4 kts 322°
2026-04-30 09:55 -37.67731 144.84748 372 ft 2 kts 262°
2026-04-30 09:55 -37.67734 144.84731 372 ft 4 kts 259°
2026-04-30 09:55 -37.67736 144.84714 372 ft 1 kts 261°
2026-04-30 09:57 -37.67736 144.84713 371 ft 1 kts 262°
2026-04-30 09:57 -37.67738 144.84691 371 ft 5 kts 262°
2026-04-30 09:57 -37.67742 144.84654 370 ft 7 kts 262°
2026-04-30 09:57 -37.67782 144.84602 371 ft 11 kts 202°
2026-04-30 09:58 -37.67828 144.84529 371 ft 12 kts 265°
2026-04-30 09:58 -37.67836 144.84421 363 ft 13 kts 261°
2026-04-30 09:58 -37.67851 144.84300 361 ft 15 kts 262°
2026-04-30 09:58 -37.67865 144.84175 359 ft 14 kts 262°
2026-04-30 09:59 -37.67871 144.84122 365 ft 0 kts 261°
2026-04-30 09:59 -37.67871 144.84121 365 ft 1 kts 261°
2026-04-30 10:00 -37.67872 144.84112 363 ft 0 kts 262°
2026-04-30 10:02 -37.67875 144.84086 357 ft 10 kts 262°
2026-04-30 10:02 -37.67857 144.83972 358 ft 15 kts 318°
2026-04-30 10:03 -37.67758 144.83947 361 ft 18 kts 352°
2026-04-30 10:03 -37.67405 144.83883 370 ft 86 kts 352°
2026-04-30 10:03 -37.66666 144.83745 393 ft 140 kts 351°
2026-04-30 10:03 -37.65817 144.83583 571 ft 162 kts 352°
2026-04-30 10:04 -37.64745 144.83404 1390 ft 149 kts 354°
2026-04-30 10:04 -37.63725 144.83261 2088 ft 150 kts 355°
2026-04-30 10:04 -37.62631 144.83078 2438 ft 169 kts 352°
2026-04-30 10:04 -37.61399 144.82820 2637 ft 191 kts 351°
2026-04-30 10:05 -37.60004 144.82532 2849 ft 215 kts 353°
2026-04-30 10:05 -37.58451 144.82710 3119 ft 237 kts 19°
2026-04-30 10:05 -37.57052 144.83533 3691 ft 244 kts 23°
2026-04-30 10:05 -37.55513 144.84470 4434 ft 247 kts 22°
2026-04-30 10:06 -37.53953 144.85418 5166 ft 250 kts 22°
2026-04-30 10:06 -37.52377 144.86376 5859 ft 254 kts 22°
2026-04-30 10:06 -37.50818 144.87322 6459 ft 260 kts 22°
2026-04-30 10:06 -37.49172 144.88322 7096 ft 265 kts 22°
2026-04-30 10:07 -37.47505 144.89337 7732 ft 268 kts 22°
2026-04-30 10:07 -37.45814 144.90363 8396 ft 271 kts 22°
2026-04-30 10:07 -37.44145 144.91530 9035 ft 279 kts 32°
2026-04-30 10:07 -37.42761 144.93232 9663 ft 288 kts 49°
2026-04-30 10:08 -37.41587 144.95313 10248 ft 296 kts 51°
2026-04-30 10:08 -37.40377 144.97466 10567 ft 310 kts 51°
2026-04-30 10:08 -37.39088 144.99745 10690 ft 330 kts 51°
2026-04-30 10:08 -37.37723 145.02157 10950 ft 344 kts 51°
2026-04-30 10:09 -37.36332 145.04628 11469 ft 349 kts 51°
2026-04-30 10:09 -37.34924 145.07134 12050 ft 352 kts 52°
2026-04-30 10:09 -37.33506 145.09653 12637 ft 355 kts 51°
2026-04-30 10:09 -37.32071 145.12187 13230 ft 357 kts 51°
2026-04-30 10:10 -37.30621 145.14742 13800 ft 360 kts 51°
2026-04-30 10:10 -37.29159 145.17316 14355 ft 363 kts 51°
2026-04-30 10:10 -37.27686 145.19912 14871 ft 366 kts 51°
2026-04-30 10:10 -37.26203 145.22522 15388 ft 369 kts 51°
2026-04-30 10:11 -37.24707 145.25150 15913 ft 371 kts 51°
2026-04-30 10:11 -37.23198 145.27800 16426 ft 374 kts 51°
2026-04-30 10:11 -37.21680 145.30463 16920 ft 377 kts 51°
2026-04-30 10:11 -37.20150 145.33145 17415 ft 379 kts 51°
2026-04-30 10:12 -37.18608 145.35841 17905 ft 382 kts 51°
2026-04-30 10:12 -37.17051 145.38562 18407 ft 385 kts 51°
2026-04-30 10:12 -37.15488 145.41301 18856 ft 387 kts 51°
2026-04-30 10:12 -37.13912 145.44058 19258 ft 390 kts 51°
2026-04-30 10:13 -37.12324 145.46831 19655 ft 393 kts 51°
2026-04-30 10:13 -37.10725 145.49619 20054 ft 395 kts 51°
2026-04-30 10:13 -37.09115 145.52425 20439 ft 398 kts 51°
2026-04-30 10:13 -37.07494 145.55252 20822 ft 401 kts 51°
2026-04-30 10:14 -37.05861 145.58094 21191 ft 404 kts 51°
2026-04-30 10:14 -37.04212 145.60955 21568 ft 406 kts 51°
2026-04-30 10:14 -37.00886 145.66723 22311 ft 411 kts 51°
2026-04-30 10:15 -36.99206 145.69631 22671 ft 414 kts 51°
2026-04-30 10:15 -36.97514 145.72558 23027 ft 416 kts 51°
2026-04-30 10:15 -36.95812 145.75503 23388 ft 419 kts 51°
2026-04-30 10:15 -36.94102 145.78460 23733 ft 421 kts 51°
2026-04-30 10:16 -36.92372 145.81444 24059 ft 424 kts 51°
2026-04-30 10:16 -36.90873 145.84028 24316 ft 426 kts 51°
2026-04-30 10:16 -36.89130 145.87032 24619 ft 428 kts 51°
2026-04-30 10:17 -36.85619 145.93089 25237 ft 432 kts 51°